createdAt,value
2017-08-27T00:00:30.596Z,67.40
2017-08-27T00:02:58.970Z,67.30
2017-08-27T00:05:27.319Z,67.50
2017-08-27T00:07:56.444Z,67.70
2017-08-27T00:10:24.815Z,67.70
2017-08-27T00:12:53.496Z,67.80
2017-08-27T00:15:21.842Z,68.00
2017-08-27T00:17:50.210Z,68.10
2017-08-27T00:20:18.563Z,68.20
2017-08-27T00:22:46.921Z,68.30
2017-08-27T00:25:15.282Z,68.20
2017-08-27T00:27:43.650Z,68.10
2017-08-27T00:30:12.015Z,68.20
2017-08-27T00:32:40.365Z,68.00
2017-08-27T00:35:09.515Z,67.90
2017-08-27T00:37:37.869Z,67.80
2017-08-27T00:40:06.226Z,67.70
2017-08-27T00:42:34.607Z,67.80
2017-08-27T00:45:02.994Z,67.80
2017-08-27T00:47:31.577Z,67.80
2017-08-27T00:49:59.926Z,67.60
2017-08-27T00:52:28.302Z,67.70
2017-08-27T00:54:57.431Z,67.80
2017-08-27T00:57:25.790Z,67.70
2017-08-27T00:59:54.172Z,67.90
2017-08-27T01:02:22.548Z,67.70
2017-08-27T01:04:50.894Z,68.40
2017-08-27T01:07:18.581Z,67.90
2017-08-27T01:09:46.578Z,67.90
2017-08-27T01:12:14.930Z,68.10
2017-08-27T01:14:43.288Z,68.20
2017-08-27T01:17:11.779Z,68.50
2017-08-27T01:19:40.417Z,68.60
2017-08-27T01:22:08.765Z,68.40
2017-08-27T01:24:37.214Z,68.60
2017-08-27T01:27:05.689Z,68.60
2017-08-27T01:29:34.030Z,68.40
2017-08-27T01:32:02.390Z,68.50
2017-08-27T01:34:30.779Z,68.70
2017-08-27T01:36:59.151Z,68.80
2017-08-27T01:39:29.207Z,69.20
2017-08-27T01:41:57.635Z,69.70
2017-08-27T01:44:26.015Z,69.40
2017-08-27T01:46:54.388Z,71.60
2017-08-27T01:49:22.747Z,73.80
2017-08-27T01:51:51.113Z,75.40
2017-08-27T01:54:20.242Z,76.10
2017-08-27T01:56:48.593Z,76.10
2017-08-27T01:59:16.973Z,76.20
2017-08-27T02:01:45.349Z,75.70
2017-08-27T02:04:13.989Z,76.10
2017-08-27T02:06:42.351Z,76.70
2017-08-27T02:09:10.752Z,77.50
2017-08-27T02:11:39.335Z,77.20
2017-08-27T02:14:07.963Z,77.60
2017-08-27T02:16:36.318Z,77.20
2017-08-27T02:19:04.676Z,77.00
2017-08-27T02:21:33.047Z,77.40
2017-08-27T02:24:01.433Z,76.40
2017-08-27T02:26:29.598Z,77.30
2017-08-27T02:28:58.051Z,78.70
2017-08-27T02:31:26.482Z,79.00
2017-08-27T02:33:54.865Z,79.00
2017-08-27T02:36:23.281Z,77.60
2017-08-27T02:38:51.624Z,76.70
2017-08-27T02:41:19.974Z,76.20
2017-08-27T02:43:48.641Z,75.50
2017-08-27T02:46:16.997Z,75.70
2017-08-27T02:48:45.569Z,75.80
2017-08-27T02:51:13.914Z,75.70
2017-08-27T02:53:42.287Z,75.30
2017-08-27T02:56:10.634Z,75.00
2017-08-27T02:58:39.175Z,75.10
2017-08-27T03:01:07.859Z,75.20
2017-08-27T03:03:36.219Z,75.70
2017-08-27T03:06:04.618Z,75.90
2017-08-27T03:08:33.292Z,75.70
2017-08-27T03:11:01.666Z,75.80
2017-08-27T03:13:30.020Z,76.20
2017-08-27T03:15:58.420Z,76.30
2017-08-27T03:18:26.798Z,76.60
2017-08-27T03:20:55.377Z,77.10
2017-08-27T03:23:23.734Z,77.10
2017-08-27T03:25:52.091Z,77.40
2017-08-27T03:28:20.456Z,77.30
2017-08-27T03:30:48.881Z,77.20
2017-08-27T03:33:17.225Z,77.00
2017-08-27T03:35:45.596Z,77.10
2017-08-27T03:38:13.973Z,77.50
2017-08-27T03:40:42.335Z,77.90
2017-08-27T03:43:10.954Z,78.00
2017-08-27T03:45:39.442Z,77.90
2017-08-27T03:48:07.793Z,78.00
2017-08-27T03:50:36.166Z,78.70
2017-08-27T03:53:04.629Z,79.10
2017-08-27T03:55:32.811Z,79.50
2017-08-27T03:58:00.981Z,79.80
2017-08-27T04:00:29.357Z,80.00
2017-08-27T04:02:58.485Z,80.20
2017-08-27T04:05:27.065Z,80.10
2017-08-27T04:07:55.424Z,80.10
2017-08-27T04:10:23.793Z,80.20
2017-08-27T04:12:52.315Z,80.40
2017-08-27T04:15:20.666Z,80.70
2017-08-27T04:17:49.027Z,80.60
2017-08-27T04:20:17.382Z,80.60
2017-08-27T04:22:45.750Z,80.80
2017-08-27T04:25:14.111Z,80.70
2017-08-27T04:27:42.493Z,81.00
2017-08-27T04:30:10.845Z,80.90
2017-08-27T04:32:39.500Z,81.30
2017-08-27T04:35:07.880Z,81.40
2017-08-27T04:37:36.241Z,81.30
2017-08-27T04:40:04.594Z,81.40
2017-08-27T04:42:33.081Z,81.30
2017-08-27T04:45:01.433Z,81.20
2017-08-27T04:47:30.004Z,81.00
2017-08-27T04:49:58.436Z,81.00
2017-08-27T04:52:26.916Z,81.00
2017-08-27T04:54:55.293Z,81.10
2017-08-27T04:57:23.662Z,80.90
2017-08-27T04:59:52.863Z,81.10
2017-08-27T05:02:21.219Z,81.10
2017-08-27T05:04:49.573Z,81.00
2017-08-27T05:07:17.944Z,81.20
2017-08-27T05:09:46.314Z,81.30
2017-08-27T05:12:14.664Z,81.60
2017-08-27T05:14:43.118Z,82.00
2017-08-27T05:17:11.466Z,81.90
2017-08-27T05:19:39.839Z,82.50
2017-08-27T05:22:08.969Z,82.00
2017-08-27T05:24:37.362Z,82.00
2017-08-27T05:27:05.739Z,82.00
2017-08-27T05:29:34.119Z,81.30
2017-08-27T05:32:02.495Z,81.30
2017-08-27T05:34:30.851Z,81.20
2017-08-27T05:36:59.226Z,81.10
2017-08-27T05:39:27.801Z,80.80
2017-08-27T05:41:56.145Z,81.10
2017-08-27T05:44:25.274Z,79.80
2017-08-27T05:46:53.848Z,79.70
2017-08-27T05:49:22.447Z,79.90
2017-08-27T05:51:50.811Z,79.80
2017-08-27T05:54:19.180Z,79.50
2017-08-27T05:56:47.567Z,79.60
2017-08-27T05:59:15.909Z,79.00
2017-08-27T06:01:44.263Z,78.60
2017-08-27T06:04:12.634Z,77.80
2017-08-27T06:06:41.218Z,77.80
2017-08-27T06:09:09.562Z,77.40
2017-08-27T06:11:37.923Z,77.30
2017-08-27T06:14:06.275Z,76.90
2017-08-27T06:16:34.634Z,76.80
2017-08-27T06:19:02.995Z,76.60
2017-08-27T06:21:31.363Z,76.70
2017-08-27T06:23:59.729Z,76.50
2017-08-27T06:26:28.263Z,75.90
2017-08-27T06:28:56.694Z,75.70
2017-08-27T06:31:25.067Z,75.80
2017-08-27T06:33:53.437Z,76.60
2017-08-27T06:36:21.795Z,75.80
2017-08-27T06:38:50.426Z,75.50
2017-08-27T06:41:19.750Z,75.60
2017-08-27T06:43:48.099Z,75.50
2017-08-27T06:46:16.470Z,75.30
2017-08-27T06:48:44.833Z,74.20
2017-08-27T06:51:13.253Z,73.80
2017-08-27T06:53:41.426Z,73.20
2017-08-27T06:56:09.786Z,73.60
2017-08-27T06:58:38.379Z,73.80
2017-08-27T07:01:06.543Z,73.00
2017-08-27T07:03:34.904Z,72.50
2017-08-27T07:06:03.259Z,72.50
2017-08-27T07:08:32.704Z,72.90
2017-08-27T07:11:01.079Z,72.90
2017-08-27T07:13:29.438Z,72.70
2017-08-27T07:15:58.075Z,72.20
2017-08-27T07:18:26.451Z,72.00
2017-08-27T07:20:54.813Z,71.00
2017-08-27T07:23:23.174Z,70.60
2017-08-27T07:25:51.742Z,70.70
2017-08-27T07:28:20.101Z,70.20
2017-08-27T07:30:48.563Z,70.10
2017-08-27T07:33:17.605Z,69.70
2017-08-27T07:35:46.094Z,69.60
2017-08-27T07:38:14.451Z,69.30
2017-08-27T07:40:42.823Z,68.50
2017-08-27T07:43:11.395Z,68.50
2017-08-27T07:45:39.750Z,66.30
2017-08-27T07:48:08.882Z,66.40
2017-08-27T07:50:37.243Z,66.40
2017-08-27T07:53:05.822Z,67.10
2017-08-27T07:55:34.165Z,67.30
2017-08-27T07:58:03.303Z,67.20
2017-08-27T08:00:31.874Z,67.20
2017-08-27T08:03:00.244Z,67.20
2017-08-27T08:05:28.432Z,67.00
2017-08-27T08:07:56.603Z,66.60
2017-08-27T08:10:25.008Z,66.50
2017-08-27T08:12:53.362Z,65.90
2017-08-27T08:15:21.815Z,65.40
2017-08-27T08:17:50.192Z,65.00
2017-08-27T08:20:18.627Z,63.30
2017-08-27T08:22:47.001Z,61.70
2017-08-27T08:25:15.367Z,62.70
2017-08-27T08:27:43.746Z,62.00
2017-08-27T08:30:12.109Z,62.20
2017-08-27T08:32:40.476Z,62.90
2017-08-27T08:35:08.838Z,62.30
2017-08-27T08:37:37.207Z,60.70
2017-08-27T08:40:05.575Z,61.70
2017-08-27T08:42:33.883Z,61.70
2017-08-27T08:45:02.244Z,62.10
2017-08-27T08:47:30.608Z,62.20
2017-08-27T08:49:59.080Z,62.20
2017-08-27T08:52:27.437Z,62.50
2017-08-27T08:54:55.807Z,62.30
2017-08-27T08:57:24.192Z,62.00
2017-08-27T08:59:52.641Z,61.70
2017-08-27T09:02:21.043Z,61.40
2017-08-27T09:04:49.643Z,61.10
2017-08-27T09:07:18.010Z,60.00
2017-08-27T09:09:46.370Z,59.40
2017-08-27T09:12:14.735Z,59.80
2017-08-27T09:14:44.063Z,59.80
2017-08-27T09:17:12.575Z,59.80
2017-08-27T09:19:40.932Z,59.20
2017-08-27T09:22:09.295Z,58.90
2017-08-27T09:24:37.684Z,58.10
2017-08-27T09:27:06.350Z,58.20
2017-08-27T09:29:34.736Z,58.10
2017-08-27T09:32:03.795Z,58.80
2017-08-27T09:34:32.202Z,58.80
2017-08-27T09:37:00.672Z,58.30
2017-08-27T09:39:29.034Z,58.30
2017-08-27T09:41:57.384Z,54.70
2017-08-27T09:44:25.868Z,54.80
2017-08-27T09:46:54.233Z,55.30
2017-08-27T09:49:23.382Z,54.20
2017-08-27T09:51:51.567Z,54.10
2017-08-27T09:54:19.927Z,54.30
2017-08-27T09:56:48.277Z,54.10
2017-08-27T09:59:16.648Z,53.70
2017-08-27T10:01:45.112Z,53.90
2017-08-27T10:04:13.466Z,53.90
2017-08-27T10:06:41.826Z,55.10
2017-08-27T10:09:10.184Z,55.10
2017-08-27T10:11:38.766Z,55.10
2017-08-27T10:14:07.235Z,54.30
2017-08-27T10:16:35.592Z,53.80
2017-08-27T10:19:03.964Z,54.40
2017-08-27T10:21:32.473Z,52.90
2017-08-27T10:24:00.826Z,51.50
2017-08-27T10:26:29.179Z,51.90
2017-08-27T10:28:57.538Z,52.10
2017-08-27T10:31:25.897Z,52.00
2017-08-27T10:33:54.317Z,51.90
2017-08-27T10:36:22.688Z,51.10
2017-08-27T10:38:51.088Z,50.70
2017-08-27T10:41:19.465Z,50.00
2017-08-27T10:43:47.807Z,50.40
2017-08-27T10:46:15.976Z,50.30
2017-08-27T10:48:44.362Z,51.00
2017-08-27T10:51:12.719Z,51.50
2017-08-27T10:53:41.848Z,49.90
2017-08-27T10:56:10.369Z,49.90
2017-08-27T10:58:38.730Z,48.60
2017-08-27T11:01:07.094Z,48.20
2017-08-27T11:03:35.666Z,47.80
2017-08-27T11:06:04.042Z,48.80
2017-08-27T11:08:32.417Z,48.90
2017-08-27T11:11:00.856Z,49.20
2017-08-27T11:13:29.205Z,49.00
2017-08-27T11:15:57.567Z,49.60
2017-08-27T11:18:25.930Z,50.30
2017-08-27T11:20:55.012Z,48.60
2017-08-27T11:23:23.350Z,48.40
2017-08-27T11:25:51.731Z,47.80
2017-08-27T11:28:20.087Z,47.50
2017-08-27T11:30:48.439Z,46.60
2017-08-27T11:33:16.796Z,47.50
2017-08-27T11:35:45.161Z,48.30
2017-08-27T11:38:13.523Z,47.90
2017-08-27T11:40:41.883Z,48.10
2017-08-27T11:43:10.239Z,46.80
2017-08-27T11:45:38.614Z,46.30
2017-08-27T11:48:06.996Z,45.80
2017-08-27T11:50:35.359Z,46.70
2017-08-27T11:53:03.722Z,46.90
2017-08-27T11:55:32.428Z,46.70
2017-08-27T11:58:00.800Z,45.90
2017-08-27T12:00:29.141Z,45.30
2017-08-27T12:02:57.521Z,45.70
2017-08-27T12:05:25.983Z,45.40
2017-08-27T12:07:54.414Z,45.40
2017-08-27T12:10:22.774Z,45.10
2017-08-27T12:12:51.127Z,44.40
2017-08-27T12:15:19.487Z,45.10
2017-08-27T12:17:47.831Z,44.40
2017-08-27T12:20:16.964Z,43.60
2017-08-27T12:22:45.336Z,43.60
2017-08-27T12:25:14.489Z,43.40
2017-08-27T12:27:42.898Z,42.80
2017-08-27T12:30:11.256Z,43.70
2017-08-27T12:32:39.446Z,42.70
2017-08-27T12:35:07.786Z,42.70
2017-08-27T12:37:36.164Z,43.30
2017-08-27T12:40:04.575Z,43.90
2017-08-27T12:42:32.942Z,42.90
2017-08-27T12:45:01.295Z,43.00
2017-08-27T12:47:29.655Z,42.60
2017-08-27T12:49:58.010Z,41.90
2017-08-27T12:52:26.372Z,42.20
2017-08-27T12:54:54.826Z,42.10
2017-08-27T12:57:23.174Z,40.90
2017-08-27T12:59:51.542Z,41.10
2017-08-27T13:02:19.890Z,41.10
2017-08-27T13:04:48.306Z,41.30
2017-08-27T13:07:16.668Z,41.50
2017-08-27T13:09:45.029Z,41.00
2017-08-27T13:12:13.396Z,40.60
2017-08-27T13:14:41.831Z,40.30
2017-08-27T13:17:10.310Z,40.00
2017-08-27T13:19:38.683Z,40.20
2017-08-27T13:22:07.037Z,40.20
2017-08-27T13:24:35.470Z,40.60
2017-08-27T13:27:03.828Z,39.70
2017-08-27T13:29:32.002Z,40.10
2017-08-27T13:32:00.367Z,40.10
2017-08-27T13:34:28.719Z,40.00
2017-08-27T13:36:57.068Z,39.00
2017-08-27T13:39:25.588Z,39.20
2017-08-27T13:41:53.960Z,38.90
2017-08-27T13:44:22.341Z,39.20
2017-08-27T13:46:50.718Z,40.10
2017-08-27T13:49:19.080Z,39.60
2017-08-27T13:51:47.429Z,39.80
2017-08-27T13:54:15.802Z,39.90
2017-08-27T13:56:44.146Z,39.50
2017-08-27T13:59:12.502Z,39.10
2017-08-27T14:01:40.968Z,38.90
2017-08-27T14:04:09.327Z,38.50
2017-08-27T14:06:37.831Z,39.00
2017-08-27T14:09:06.178Z,38.60
2017-08-27T14:11:34.526Z,38.90
2017-08-27T14:14:02.902Z,38.30
2017-08-27T14:16:31.295Z,38.60
2017-08-27T14:18:59.901Z,38.60
2017-08-27T14:21:28.273Z,38.60
2017-08-27T14:23:56.454Z,39.70
2017-08-27T14:26:24.800Z,38.20
2017-08-27T14:28:53.410Z,38.40
2017-08-27T14:31:21.771Z,38.60
2017-08-27T14:33:50.133Z,38.70
2017-08-27T14:36:18.487Z,38.10
2017-08-27T14:38:47.628Z,37.90
2017-08-27T14:41:16.006Z,37.90
2017-08-27T14:43:44.580Z,38.10
2017-08-27T14:46:12.960Z,38.30
2017-08-27T14:48:41.127Z,38.30
2017-08-27T14:51:09.479Z,38.20
2017-08-27T14:53:37.835Z,38.40
2017-08-27T14:56:06.188Z,37.90
2017-08-27T14:58:34.541Z,37.40
2017-08-27T15:01:03.275Z,37.30
2017-08-27T15:03:31.635Z,38.30
2017-08-27T15:06:00.274Z,37.00
2017-08-27T15:08:29.395Z,37.10
2017-08-27T15:10:57.747Z,37.10
2017-08-27T15:13:26.100Z,37.60
2017-08-27T15:15:54.491Z,37.50
2017-08-27T15:18:22.842Z,37.30
2017-08-27T15:20:51.207Z,38.00
2017-08-27T15:23:19.519Z,37.40
2017-08-27T15:25:47.901Z,37.60
2017-08-27T15:28:16.300Z,37.50
2017-08-27T15:30:44.676Z,37.00
2017-08-27T15:33:13.039Z,37.70
2017-08-27T15:35:41.705Z,37.40
2017-08-27T15:38:10.075Z,37.90
2017-08-27T15:40:38.430Z,37.30
2017-08-27T15:43:07.558Z,36.80
2017-08-27T15:45:35.921Z,36.70
2017-08-27T15:48:04.277Z,37.60
2017-08-27T15:50:32.627Z,38.30
2017-08-27T15:53:01.193Z,37.60
2017-08-27T15:55:29.560Z,37.70
2017-08-27T15:57:57.911Z,38.10
2017-08-27T16:00:27.303Z,39.10
2017-08-27T16:02:55.679Z,39.10
2017-08-27T16:05:24.615Z,38.90
2017-08-27T16:07:53.044Z,38.80
2017-08-27T16:10:21.386Z,38.70
2017-08-27T16:12:49.563Z,38.50
2017-08-27T16:15:17.920Z,38.40
2017-08-27T16:17:46.278Z,38.70
2017-08-27T16:20:14.655Z,39.20
2017-08-27T16:22:42.831Z,39.30
2017-08-27T16:25:11.065Z,39.20
2017-08-27T16:27:39.742Z,38.40
2017-08-27T16:30:07.920Z,38.50
2017-08-27T16:32:36.176Z,38.90
2017-08-27T16:35:04.344Z,39.10
2017-08-27T16:37:32.531Z,39.60
2017-08-27T16:40:00.798Z,39.70
2017-08-27T16:42:29.111Z,39.80
2017-08-27T16:44:57.283Z,39.60
2017-08-27T16:47:36.617Z,39.90
2017-08-27T16:50:04.818Z,39.10
2017-08-27T16:52:33.242Z,39.60
2017-08-27T16:55:01.607Z,39.30
2017-08-27T16:57:29.959Z,39.10
2017-08-27T16:59:58.307Z,39.30
2017-08-27T17:02:26.676Z,39.70
2017-08-27T17:04:55.222Z,40.10
2017-08-27T17:07:23.896Z,40.90
2017-08-27T17:09:52.092Z,41.00
2017-08-27T17:12:20.283Z,40.40
2017-08-27T17:14:48.467Z,40.70
2017-08-27T17:17:16.637Z,41.30
2017-08-27T17:19:44.853Z,41.50
2017-08-27T17:22:13.026Z,42.00
2017-08-27T17:24:41.214Z,42.40
2017-08-27T17:27:09.378Z,43.00
2017-08-27T17:29:37.557Z,43.20
2017-08-27T17:32:05.732Z,43.40
2017-08-27T17:34:33.927Z,43.90
2017-08-27T17:37:02.097Z,43.90
2017-08-27T17:39:30.264Z,44.20
2017-08-27T17:41:58.433Z,44.40
2017-08-27T17:44:26.602Z,44.40
2017-08-27T17:46:54.769Z,44.40
2017-08-27T17:49:23.001Z,44.40
2017-08-27T17:51:51.248Z,44.50
2017-08-27T17:54:19.425Z,44.80
2017-08-27T17:56:47.607Z,44.80
2017-08-27T17:59:15.762Z,44.90
2017-08-27T18:01:43.934Z,44.80
2017-08-27T18:04:12.874Z,45.00
2017-08-27T18:06:41.048Z,45.50
2017-08-27T18:09:09.236Z,45.90
2017-08-27T18:11:37.400Z,45.70
2017-08-27T18:14:05.761Z,45.80
2017-08-27T18:16:33.940Z,46.00
2017-08-27T18:19:02.311Z,46.60
2017-08-27T18:21:30.688Z,46.80
2017-08-27T18:23:59.249Z,46.80
2017-08-27T18:26:27.598Z,47.00
2017-08-27T18:28:55.981Z,47.00
2017-08-27T18:31:24.349Z,47.40
2017-08-27T18:33:52.543Z,47.50
2017-08-27T18:36:21.142Z,47.80
2017-08-27T18:38:49.518Z,48.00
2017-08-27T18:41:17.882Z,48.30
2017-08-27T18:43:46.277Z,48.50
2017-08-27T18:46:14.632Z,48.80
2017-08-27T18:48:43.070Z,49.00
2017-08-27T18:51:12.298Z,49.30
2017-08-27T18:53:40.770Z,49.50
2017-08-27T18:56:09.111Z,49.50
2017-08-27T18:58:37.474Z,49.50
2017-08-27T19:01:05.844Z,49.90
2017-08-27T19:03:34.026Z,50.80
2017-08-27T19:06:02.413Z,50.20
2017-08-27T19:08:30.843Z,50.50
2017-08-27T19:10:59.397Z,50.50
2017-08-27T19:13:27.817Z,50.80
2017-08-27T19:15:55.978Z,50.90
2017-08-27T19:18:24.151Z,50.90
2017-08-27T19:20:52.339Z,51.10
2017-08-27T19:23:20.699Z,51.20
2017-08-27T19:25:49.287Z,51.10
2017-08-27T19:28:17.634Z,51.30
2017-08-27T19:30:46.003Z,52.20
2017-08-27T19:33:14.372Z,51.60
2017-08-27T19:35:42.751Z,51.90
2017-08-27T19:38:11.111Z,52.10
2017-08-27T19:40:39.501Z,52.20
2017-08-27T19:43:07.976Z,52.40
2017-08-27T19:45:36.347Z,52.50
2017-08-27T19:48:04.728Z,52.60
2017-08-27T19:50:32.999Z,52.80
2017-08-27T19:53:01.364Z,52.90
2017-08-27T19:55:29.750Z,53.20
2017-08-27T19:57:58.139Z,53.40
2017-08-27T20:00:26.499Z,53.40
2017-08-27T20:02:54.710Z,53.30
2017-08-27T20:05:23.128Z,53.60
2017-08-27T20:07:51.748Z,53.80
2017-08-27T20:10:20.134Z,53.80
2017-08-27T20:12:48.533Z,53.40
2017-08-27T20:15:16.911Z,53.50
2017-08-27T20:17:45.282Z,53.50
2017-08-27T20:20:13.662Z,53.60
2017-08-27T20:22:42.031Z,54.00
2017-08-27T20:25:10.671Z,54.10
2017-08-27T20:27:39.022Z,54.30
2017-08-27T20:30:07.419Z,54.70
2017-08-27T20:32:35.491Z,54.70
2017-08-27T20:35:03.869Z,54.80
2017-08-27T20:37:32.549Z,54.70
2017-08-27T20:40:01.000Z,55.10
2017-08-27T20:42:29.403Z,55.00
2017-08-27T20:44:57.755Z,55.10
2017-08-27T20:47:26.119Z,55.20
2017-08-27T20:49:54.687Z,55.40
2017-08-27T20:52:23.036Z,55.40
2017-08-27T20:54:51.396Z,55.50
2017-08-27T20:57:20.036Z,55.50
2017-08-27T20:59:48.407Z,55.70
2017-08-27T21:02:16.776Z,55.70
2017-08-27T21:04:45.144Z,55.80
2017-08-27T21:07:13.671Z,56.00
2017-08-27T21:09:42.011Z,56.10
2017-08-27T21:12:11.156Z,56.30
2017-08-27T21:14:39.714Z,56.30
2017-08-27T21:17:08.124Z,56.20
2017-08-27T21:19:36.475Z,56.20
2017-08-27T21:22:05.154Z,56.60
2017-08-27T21:24:33.507Z,56.80
2017-08-27T21:27:01.879Z,56.80
2017-08-27T21:29:30.998Z,56.80
2017-08-27T21:31:59.363Z,56.80
2017-08-27T21:34:27.719Z,56.90
2017-08-27T21:36:56.085Z,57.00
2017-08-27T21:39:24.668Z,57.10
2017-08-27T21:41:53.079Z,56.90
2017-08-27T21:44:21.422Z,57.80
2017-08-27T21:46:49.936Z,57.30
2017-08-27T21:49:18.320Z,57.20
2017-08-27T21:51:46.668Z,57.00
2017-08-27T21:54:15.040Z,56.90
2017-08-27T21:56:43.398Z,56.90
2017-08-27T21:59:11.771Z,56.80
2017-08-27T22:01:40.144Z,56.60
2017-08-27T22:04:08.516Z,56.30
2017-08-27T22:06:36.867Z,56.20
2017-08-27T22:09:04.601Z,56.00
2017-08-27T22:11:32.972Z,56.00
2017-08-27T22:14:01.453Z,56.20
2017-08-27T22:16:29.799Z,56.10
2017-08-27T22:18:58.163Z,56.40
2017-08-27T22:21:26.727Z,56.40
2017-08-27T22:23:55.064Z,56.30
2017-08-27T22:26:23.534Z,56.20
2017-08-27T22:28:51.883Z,56.30
2017-08-27T22:31:20.249Z,56.50
2017-08-27T22:33:48.596Z,56.40
2017-08-27T22:36:17.141Z,56.60
2017-08-27T22:38:45.500Z,56.80
2017-08-27T22:41:13.850Z,57.00
2017-08-27T22:43:42.264Z,57.20
2017-08-27T22:46:10.745Z,57.70
2017-08-27T22:48:38.899Z,57.40
2017-08-27T22:51:07.249Z,57.90
2017-08-27T22:53:35.619Z,57.80
2017-08-27T22:56:03.991Z,58.20
2017-08-27T22:58:32.159Z,57.70
2017-08-27T23:01:00.911Z,57.40
2017-08-27T23:03:29.335Z,57.40
2017-08-27T23:05:57.698Z,57.40
2017-08-27T23:08:26.331Z,57.50
2017-08-27T23:10:54.667Z,57.80
2017-08-27T23:13:26.755Z,58.00
2017-08-27T23:15:55.116Z,57.80
2017-08-27T23:18:23.471Z,57.80
2017-08-27T23:20:51.839Z,57.80
2017-08-27T23:23:20.189Z,57.90
2017-08-27T23:25:48.365Z,57.90
2017-08-27T23:28:16.803Z,58.00
2017-08-27T23:30:45.159Z,58.00
2017-08-27T23:33:14.277Z,58.20
2017-08-27T23:35:42.765Z,58.20
2017-08-27T23:38:11.366Z,58.30
2017-08-27T23:40:39.730Z,58.20
2017-08-27T23:43:08.198Z,58.30
2017-08-27T23:45:36.546Z,58.40
2017-08-27T23:48:04.912Z,58.30
2017-08-27T23:50:33.267Z,58.50
2017-08-27T23:53:01.609Z,58.60
2017-08-27T23:55:29.979Z,58.40
2017-08-27T23:57:58.353Z,58.60
